createdAt,value
2023-03-18T00:00:08.704Z,0
2023-03-18T00:01:09.527Z,0
2023-03-18T00:02:11.038Z,0
2023-03-18T00:03:11.026Z,0
2023-03-18T00:04:12.471Z,0
2023-03-18T00:05:13.206Z,0
2023-03-18T00:06:13.488Z,0
2023-03-18T00:07:13.940Z,0
2023-03-18T00:08:14.706Z,0
2023-03-18T00:09:14.358Z,0
2023-03-18T00:10:15.597Z,0
2023-03-18T00:11:16.107Z,0
2023-03-18T00:12:16.039Z,0
2023-03-18T00:13:16.251Z,0
2023-03-18T00:14:16.594Z,0
2023-03-18T00:15:17.544Z,0
2023-03-18T00:16:18.438Z,0
2023-03-18T00:17:18.822Z,0
2023-03-18T00:18:18.472Z,0
2023-03-18T00:19:19.392Z,0
2023-03-18T00:20:19.352Z,0
2023-03-18T00:21:20.376Z,0
2023-03-18T00:22:20.354Z,0
2023-03-18T00:23:21.282Z,0
2023-03-18T00:24:21.792Z,0
2023-03-18T00:25:21.735Z,0
2023-03-18T00:26:22.667Z,0
2023-03-18T00:27:23.589Z,0
2023-03-18T00:28:24.651Z,0
2023-03-18T00:29:24.909Z,0
2023-03-18T00:30:25.478Z,0
2023-03-18T00:31:25.921Z,0
2023-03-18T00:32:25.736Z,0
2023-03-18T00:33:26.136Z,0
2023-03-18T00:34:26.934Z,0
2023-03-18T00:35:27.585Z,0
2023-03-18T00:36:28.224Z,0
2023-03-18T00:37:28.166Z,0
2023-03-18T00:38:28.761Z,0
2023-03-18T00:39:28.685Z,0
2023-03-18T00:40:28.887Z,0
2023-03-18T00:41:30.234Z,0
2023-03-18T00:42:29.598Z,0
2023-03-18T00:43:30.806Z,0
2023-03-18T00:44:30.818Z,0
2023-03-18T00:45:31.024Z,0
2023-03-18T00:46:32.418Z,0
2023-03-18T00:47:32.830Z,0
2023-03-18T00:48:33.041Z,0
2023-03-18T00:49:34.245Z,0
2023-03-18T00:50:33.965Z,0
2023-03-18T00:51:35.310Z,0
2023-03-18T00:52:37.882Z,0
2023-03-18T00:53:36.083Z,0
2023-03-18T00:54:36.137Z,0
2023-03-18T00:55:37.342Z,0
2023-03-18T00:56:38.307Z,0
2023-03-18T00:57:38.530Z,0
2023-03-18T00:58:39.491Z,0
2023-03-18T00:59:39.454Z,0
2023-03-18T01:00:40.597Z,0
2023-03-18T01:01:40.437Z,0
2023-03-18T01:02:41.766Z,0
2023-03-18T01:03:42.049Z,0
2023-03-18T01:04:42.078Z,0
2023-03-18T01:05:42.003Z,0
2023-03-18T01:06:43.286Z,0
2023-03-18T01:07:43.046Z,0
2023-03-18T01:08:44.255Z,0
2023-03-18T01:09:44.489Z,0
2023-03-18T01:10:45.164Z,0
2023-03-18T01:11:46.658Z,0
2023-03-18T01:12:46.643Z,0
2023-03-18T01:13:46.606Z,0
2023-03-18T01:14:47.651Z,0
2023-03-18T01:15:48.860Z,0
2023-03-18T01:16:49.509Z,0
2023-03-18T01:17:49.785Z,0
2023-03-18T01:18:50.030Z,0
2023-03-18T01:19:50.549Z,0
2023-03-18T01:20:50.476Z,0
2023-03-18T01:21:52.078Z,0
2023-03-18T01:22:52.316Z,0
2023-03-18T01:23:52.588Z,0
2023-03-18T01:24:53.613Z,0
2023-03-18T01:25:54.134Z,0
2023-03-18T01:26:54.770Z,0
2023-03-18T01:27:55.267Z,0
2023-03-18T01:28:55.470Z,0
2023-03-18T01:29:56.095Z,0
2023-03-18T01:30:57.121Z,0
2023-03-18T01:31:58.606Z,0
2023-03-18T01:32:58.951Z,0
2023-03-18T01:33:59.676Z,0
2023-03-18T01:34:59.479Z,0
2023-03-18T01:36:00.055Z,0
2023-03-18T01:37:01.866Z,0
2023-03-18T01:38:01.891Z,0
2023-03-18T01:39:02.120Z,0
2023-03-18T01:40:03.054Z,0
2023-03-18T01:41:03.560Z,0
2023-03-18T01:42:03.594Z,0
2023-03-18T01:43:04.810Z,0
2023-03-18T01:44:05.155Z,0
2023-03-18T01:45:06.459Z,0
2023-03-18T01:46:06.688Z,0
2023-03-18T01:47:07.671Z,0
2023-03-18T01:48:08.178Z,0
2023-03-18T01:49:07.638Z,0
2023-03-18T01:50:08.585Z,0
2023-03-18T01:51:09.227Z,0
2023-03-18T01:52:09.792Z,0
2023-03-18T01:53:10.027Z,0
2023-03-18T01:54:09.965Z,0
2023-03-18T01:55:10.743Z,0
2023-03-18T01:56:11.675Z,0
2023-03-18T01:57:11.607Z,0
2023-03-18T01:58:11.827Z,0
2023-03-18T01:59:13.001Z,0
2023-03-18T02:00:12.936Z,0
2023-03-18T02:01:14.314Z,0
2023-03-18T02:02:14.736Z,0
2023-03-18T02:03:14.925Z,0
2023-03-18T02:04:15.149Z,0
2023-03-18T02:05:16.149Z,0
2023-03-18T02:06:17.107Z,0
2023-03-18T02:07:18.367Z,0
2023-03-18T02:08:18.618Z,0
2023-03-18T02:09:18.590Z,0
2023-03-18T02:10:19.428Z,0
2023-03-18T02:11:19.919Z,0
2023-03-18T02:12:19.848Z,0
2023-03-18T02:13:20.754Z,0
2023-03-18T02:14:21.964Z,0
2023-03-18T02:15:22.329Z,0
2023-03-18T02:16:22.632Z,0
2023-03-18T02:17:22.915Z,0
2023-03-18T02:18:23.166Z,0
2023-03-18T02:19:24.424Z,0
2023-03-18T02:20:24.640Z,0
2023-03-18T02:21:25.475Z,0
2023-03-18T02:22:26.687Z,0
2023-03-18T02:23:27.278Z,0
2023-03-18T02:24:27.537Z,0
2023-03-18T02:25:28.542Z,0
2023-03-18T02:26:29.195Z,0
2023-03-18T02:27:29.555Z,0
2023-03-18T02:28:30.769Z,0
2023-03-18T02:29:30.391Z,0
2023-03-18T02:30:32.126Z,0
2023-03-18T02:31:32.809Z,0
2023-03-18T02:32:33.128Z,0
2023-03-18T02:33:33.720Z,0
2023-03-18T02:34:33.681Z,0
2023-03-18T02:35:34.901Z,0
2023-03-18T02:36:35.364Z,0
2023-03-18T02:37:36.666Z,0
2023-03-18T02:38:36.902Z,0
2023-03-18T02:39:37.429Z,0
2023-03-18T02:40:38.804Z,0
2023-03-18T02:41:39.013Z,0
2023-03-18T02:42:39.522Z,0
2023-03-18T02:43:39.485Z,0
2023-03-18T02:44:39.410Z,0
2023-03-18T02:45:40.699Z,0
2023-03-18T02:46:40.992Z,0
2023-03-18T02:47:41.924Z,0
2023-03-18T02:48:42.145Z,0
2023-03-18T02:49:42.305Z,0
2023-03-18T02:50:42.958Z,0
2023-03-18T02:51:44.173Z,0
2023-03-18T02:52:44.459Z,0
2023-03-18T02:53:44.449Z,0
2023-03-18T02:54:45.953Z,0
2023-03-18T02:55:45.698Z,0
2023-03-18T02:56:46.897Z,0
2023-03-18T02:57:47.136Z,0
2023-03-18T02:58:50.068Z,0
2023-03-18T02:59:48.520Z,0
2023-03-18T03:00:49.444Z,0
2023-03-18T03:01:50.328Z,0
2023-03-18T03:02:52.339Z,0
2023-03-18T03:03:51.525Z,0
2023-03-18T03:04:52.774Z,0
2023-03-18T03:05:53.630Z,0
2023-03-18T03:06:54.265Z,0
2023-03-18T03:07:55.599Z,0
2023-03-18T03:08:56.259Z,0
2023-03-18T03:09:56.623Z,0
2023-03-18T03:10:57.276Z,0
2023-03-18T03:11:58.183Z,0
2023-03-18T03:12:59.404Z,0
2023-03-18T03:14:00.338Z,0
2023-03-18T03:15:00.832Z,0
2023-03-18T03:16:01.477Z,0
2023-03-18T03:17:01.685Z,0
2023-03-18T03:18:02.342Z,0
2023-03-18T03:19:03.553Z,0
2023-03-18T03:20:04.195Z,0
2023-03-18T03:21:04.110Z,0
2023-03-18T03:22:05.027Z,0
2023-03-18T03:23:06.608Z,0
2023-03-18T03:24:07.560Z,0
2023-03-18T03:25:07.794Z,0
2023-03-18T03:26:08.270Z,0
2023-03-18T03:27:09.459Z,0
2023-03-18T03:28:09.699Z,0
2023-03-18T03:29:10.184Z,0
2023-03-18T03:30:10.133Z,0
2023-03-18T03:31:11.138Z,0
2023-03-18T03:32:11.110Z,0
2023-03-18T03:33:12.205Z,0
2023-03-18T03:34:12.837Z,0
2023-03-18T03:35:14.111Z,0
2023-03-18T03:36:14.937Z,0
2023-03-18T03:37:15.141Z,0
2023-03-18T03:38:15.734Z,0
2023-03-18T03:39:15.970Z,0
2023-03-18T03:40:16.256Z,0
2023-03-18T03:41:16.502Z,0
2023-03-18T03:42:16.728Z,0
2023-03-18T03:43:17.927Z,0
2023-03-18T03:44:18.408Z,0
2023-03-18T03:45:18.775Z,0
2023-03-18T03:46:20.555Z,0
2023-03-18T03:47:20.859Z,0
2023-03-18T03:48:20.221Z,0
2023-03-18T03:49:20.636Z,0
2023-03-18T03:50:21.590Z,0
2023-03-18T03:51:22.320Z,0
2023-03-18T03:52:23.251Z,0
2023-03-18T03:53:24.505Z,0
2023-03-18T03:54:25.113Z,0
2023-03-18T03:55:25.630Z,0
2023-03-18T03:56:25.971Z,0
2023-03-18T03:57:25.907Z,0
2023-03-18T03:58:26.155Z,0
2023-03-18T03:59:27.082Z,0
2023-03-18T04:00:27.552Z,0
2023-03-18T04:01:28.075Z,0
2023-03-18T04:02:29.088Z,0
2023-03-18T04:03:30.174Z,0
2023-03-18T04:04:31.671Z,0
2023-03-18T04:05:32.010Z,0
2023-03-18T04:06:31.738Z,0
2023-03-18T04:07:32.121Z,0
2023-03-18T04:08:33.763Z,0
2023-03-18T04:09:34.003Z,0
2023-03-18T04:10:34.462Z,0
2023-03-18T04:11:35.189Z,0
2023-03-18T04:12:35.676Z,0
2023-03-18T04:13:36.306Z,0
2023-03-18T04:14:36.518Z,0
2023-03-18T04:15:37.016Z,0
2023-03-18T04:16:37.190Z,0
2023-03-18T04:17:38.392Z,0
2023-03-18T04:18:38.876Z,0
2023-03-18T04:19:39.081Z,0
2023-03-18T04:20:39.668Z,0
2023-03-18T04:21:40.592Z,0
2023-03-18T04:22:40.546Z,0
2023-03-18T04:23:41.896Z,0
2023-03-18T04:24:42.421Z,0
2023-03-18T04:25:42.435Z,0
2023-03-18T04:26:44.042Z,0
2023-03-18T04:27:43.964Z,0
2023-03-18T04:28:45.498Z,0
2023-03-18T04:29:45.987Z,0
2023-03-18T04:30:46.488Z,0
2023-03-18T04:31:47.114Z,0
2023-03-18T04:32:47.709Z,0
2023-03-18T04:33:47.791Z,0
2023-03-18T04:34:48.475Z,0
2023-03-18T04:35:49.619Z,0
2023-03-18T04:36:49.708Z,0
2023-03-18T04:37:50.664Z,0
2023-03-18T04:38:51.669Z,0
2023-03-18T04:39:51.984Z,0
2023-03-18T04:40:52.065Z,0
2023-03-18T04:41:52.706Z,0
2023-03-18T04:42:53.903Z,0
2023-03-18T04:43:54.413Z,0
2023-03-18T04:44:54.042Z,0
2023-03-18T04:45:55.532Z,0
2023-03-18T04:46:55.937Z,0
2023-03-18T04:47:56.452Z,0
2023-03-18T04:48:56.407Z,0
2023-03-18T04:49:57.904Z,0
2023-03-18T04:50:57.570Z,0
2023-03-18T04:51:58.505Z,0
2023-03-18T04:52:59.462Z,0
2023-03-18T04:54:00.107Z,0
2023-03-18T04:55:00.938Z,0
2023-03-18T04:56:00.411Z,0
2023-03-18T04:57:00.761Z,0
2023-03-18T04:58:02.131Z,0
2023-03-18T04:59:02.070Z,0
2023-03-18T05:00:03.005Z,0
2023-03-18T05:01:03.712Z,0
2023-03-18T05:02:03.680Z,0
2023-03-18T05:03:04.599Z,0
2023-03-18T05:04:05.508Z,0
2023-03-18T05:05:06.066Z,4
2023-03-18T05:06:06.657Z,4
2023-03-18T05:07:06.689Z,0
2023-03-18T05:08:07.658Z,4
2023-03-18T05:09:08.247Z,4
2023-03-18T05:10:08.758Z,4
2023-03-18T05:11:09.253Z,4
2023-03-18T05:12:09.462Z,8
2023-03-18T05:13:10.492Z,4
2023-03-18T05:14:11.144Z,4
2023-03-18T05:15:12.680Z,8
2023-03-18T05:16:13.108Z,12
2023-03-18T05:17:13.443Z,12
2023-03-18T05:18:14.660Z,12
2023-03-18T05:19:14.592Z,16
2023-03-18T05:20:15.093Z,20
2023-03-18T05:21:15.778Z,24
2023-03-18T05:22:16.020Z,24
2023-03-18T05:23:16.520Z,24
2023-03-18T05:24:16.908Z,28
2023-03-18T05:25:17.866Z,32
2023-03-18T05:26:18.146Z,32
2023-03-18T05:27:19.139Z,36
2023-03-18T05:28:22.304Z,40
2023-03-18T05:29:20.247Z,44
2023-03-18T05:30:20.747Z,52
2023-03-18T05:31:21.241Z,60
2023-03-18T05:32:21.374Z,68
2023-03-18T05:33:23.317Z,76
2023-03-18T05:34:22.943Z,84
2023-03-18T05:35:23.881Z,88
2023-03-18T05:36:24.153Z,92
2023-03-18T05:37:24.495Z,100
2023-03-18T05:38:24.701Z,104
2023-03-18T05:39:25.259Z,108
2023-03-18T05:40:24.950Z,108
2023-03-18T05:41:26.185Z,108
2023-03-18T05:42:27.161Z,116
2023-03-18T05:43:28.418Z,116
2023-03-18T05:44:28.926Z,124
2023-03-18T05:45:29.185Z,132
2023-03-18T05:46:29.434Z,140
2023-03-18T05:47:30.097Z,148
2023-03-18T05:48:30.323Z,156
2023-03-18T05:49:31.266Z,168
2023-03-18T05:50:32.201Z,172
2023-03-18T05:51:32.862Z,184
2023-03-18T05:52:33.367Z,196
2023-03-18T05:53:34.005Z,208
2023-03-18T05:54:34.563Z,224
2023-03-18T05:55:34.413Z,236
2023-03-18T05:56:34.443Z,244
2023-03-18T05:57:35.326Z,260
2023-03-18T05:58:36.561Z,268
2023-03-18T05:59:36.502Z,276
2023-03-18T06:00:37.734Z,284
2023-03-18T06:01:38.217Z,300
2023-03-18T06:02:37.817Z,312
2023-03-18T06:03:39.304Z,328
2023-03-18T06:04:39.338Z,340
2023-03-18T06:05:41.101Z,356
2023-03-18T06:06:41.106Z,372
2023-03-18T06:07:42.153Z,388
2023-03-18T06:08:42.360Z,404
2023-03-18T06:09:43.435Z,420
2023-03-18T06:10:43.718Z,440
2023-03-18T06:11:44.221Z,452
2023-03-18T06:12:44.894Z,468
2023-03-18T06:13:46.487Z,484
2023-03-18T06:14:46.144Z,504
2023-03-18T06:15:48.457Z,524
2023-03-18T06:16:48.444Z,536
2023-03-18T06:17:48.413Z,552
2023-03-18T06:18:49.364Z,568
2023-03-18T06:19:50.308Z,580
2023-03-18T06:20:50.388Z,596
2023-03-18T06:21:51.597Z,612
2023-03-18T06:22:52.807Z,628
2023-03-18T06:23:52.569Z,644
2023-03-18T06:24:54.546Z,660
2023-03-18T06:25:54.794Z,680
2023-03-18T06:26:55.017Z,700
2023-03-18T06:27:56.056Z,720
2023-03-18T06:28:56.683Z,736
2023-03-18T06:29:57.780Z,752
2023-03-18T06:30:59.055Z,772
2023-03-18T06:31:59.094Z,792
2023-03-18T06:33:00.063Z,812
2023-03-18T06:34:01.289Z,836
2023-03-18T06:35:00.804Z,864
2023-03-18T06:36:02.243Z,892
2023-03-18T06:37:02.545Z,920
2023-03-18T06:38:03.145Z,940
2023-03-18T06:39:03.084Z,964
2023-03-18T06:40:04.418Z,992
2023-03-18T06:41:04.965Z,1016
2023-03-18T06:42:05.205Z,1048
2023-03-18T06:43:06.163Z,1080
2023-03-18T06:44:06.675Z,1108
2023-03-18T06:45:07.510Z,1156
2023-03-18T06:46:08.060Z,1196
2023-03-18T06:47:08.092Z,1212
2023-03-18T06:48:09.080Z,1260
2023-03-18T06:49:09.987Z,1340
2023-03-18T06:50:10.920Z,1520
2023-03-18T06:51:11.511Z,1412
2023-03-18T06:52:12.155Z,1396
2023-03-18T06:53:12.767Z,1420
2023-03-18T06:54:13.677Z,1548
2023-03-18T06:55:14.233Z,1584
2023-03-18T06:56:14.474Z,1672
2023-03-18T06:57:14.981Z,1892
2023-03-18T06:58:14.435Z,2036
2023-03-18T06:59:15.090Z,2724
2023-03-18T07:00:16.510Z,2164
2023-03-18T07:01:17.058Z,2072
2023-03-18T07:02:16.745Z,1780
2023-03-18T07:03:17.981Z,2088
2023-03-18T07:04:18.252Z,2308
2023-03-18T07:05:18.934Z,3072
2023-03-18T07:06:19.164Z,2892
2023-03-18T07:07:20.092Z,2816
2023-03-18T07:08:21.404Z,2336
2023-03-18T07:09:21.083Z,2012
2023-03-18T07:10:22.096Z,1652
2023-03-18T07:11:21.800Z,1636
2023-03-18T07:12:23.343Z,1660
2023-03-18T07:13:23.283Z,1544
2023-03-18T07:14:24.252Z,1604
2023-03-18T07:15:25.500Z,1528
2023-03-18T07:16:26.002Z,1496
2023-03-18T07:17:26.179Z,1516
2023-03-18T07:18:26.761Z,1512
2023-03-18T07:19:26.901Z,1508
2023-03-18T07:20:26.866Z,1532
2023-03-18T07:21:28.081Z,1548
2023-03-18T07:22:28.989Z,1580
2023-03-18T07:23:29.266Z,1604
2023-03-18T07:24:30.500Z,1704
2023-03-18T07:25:34.353Z,1748
2023-03-18T07:26:31.709Z,1788
2023-03-18T07:27:31.661Z,1896
2023-03-18T07:28:32.413Z,1892
2023-03-18T07:29:33.354Z,2096
2023-03-18T07:30:33.301Z,2244
2023-03-18T07:31:34.944Z,2108
2023-03-18T07:32:35.457Z,1972
2023-03-18T07:33:35.737Z,1952
2023-03-18T07:34:36.387Z,1928
2023-03-18T07:35:38.252Z,2016
2023-03-18T07:36:37.274Z,1980
2023-03-18T07:37:38.601Z,2056
2023-03-18T07:38:38.932Z,2020
2023-03-18T07:39:40.144Z,2080
2023-03-18T07:40:40.915Z,2128
2023-03-18T07:41:43.766Z,2124
2023-03-18T07:42:41.704Z,2192
2023-03-18T07:43:42.919Z,2232
2023-03-18T07:44:43.182Z,2364
2023-03-18T07:45:44.392Z,2292
2023-03-18T07:46:44.950Z,2448
2023-03-18T07:47:47.157Z,2332
2023-03-18T07:48:45.608Z,2348
2023-03-18T07:49:46.859Z,2352
2023-03-18T07:50:46.779Z,2308
2023-03-18T07:51:48.279Z,2436
2023-03-18T07:52:48.585Z,2488
2023-03-18T07:53:49.514Z,2532
2023-03-18T07:54:50.007Z,2700
2023-03-18T07:55:50.569Z,2664
2023-03-18T07:56:51.273Z,2824
2023-03-18T07:57:51.567Z,2872
2023-03-18T07:58:52.230Z,2768
2023-03-18T07:59:52.738Z,2912
2023-03-18T08:00:52.713Z,3036
2023-03-18T08:01:52.942Z,2908
2023-03-18T08:02:54.277Z,2976
2023-03-18T08:03:54.387Z,3128
2023-03-18T08:04:54.600Z,3356
2023-03-18T08:05:54.716Z,3300
2023-03-18T08:06:54.937Z,3224
2023-03-18T08:07:55.456Z,3316
2023-03-18T08:08:55.197Z,3368
2023-03-18T08:09:55.843Z,3276
2023-03-18T08:10:57.412Z,3380
2023-03-18T08:11:57.727Z,3304
2023-03-18T08:13:04.310Z,3240
2023-03-18T08:13:58.567Z,3668
2023-03-18T08:14:58.839Z,3592
2023-03-18T08:15:58.984Z,3596
2023-03-18T08:16:59.272Z,3772
2023-03-18T08:18:00.211Z,3496
2023-03-18T08:19:00.731Z,3524
2023-03-18T08:20:02.235Z,4100
2023-03-18T08:21:02.509Z,3964
2023-03-18T08:22:02.753Z,4236
2023-03-18T08:23:03.400Z,4052
2023-03-18T08:24:04.360Z,3860
2023-03-18T08:25:05.855Z,3952
2023-03-18T08:26:06.234Z,4144
2023-03-18T08:27:05.948Z,4608
2023-03-18T08:28:06.483Z,4568
2023-03-18T08:29:06.541Z,4220
2023-03-18T08:30:09.759Z,4188
2023-03-18T08:31:07.453Z,3956
2023-03-18T08:32:08.542Z,4268
2023-03-18T08:33:09.727Z,4476
2023-03-18T08:34:09.723Z,4548
2023-03-18T08:35:10.291Z,4596
2023-03-18T08:36:10.833Z,4604
2023-03-18T08:37:10.513Z,4068
2023-03-18T08:38:11.457Z,3996
2023-03-18T08:39:12.215Z,3932
2023-03-18T08:40:13.143Z,4156
2023-03-18T08:41:14.199Z,4108
2023-03-18T08:42:14.730Z,4204
2023-03-18T08:43:15.303Z,4448
2023-03-18T08:44:15.816Z,4152
2023-03-18T08:45:15.776Z,4540
2023-03-18T08:46:15.947Z,4928
2023-03-18T08:47:16.880Z,4492
2023-03-18T08:48:17.271Z,4408
2023-03-18T08:49:17.793Z,4400
2023-03-18T08:50:19.012Z,4532
2023-03-18T08:51:19.530Z,4328
2023-03-18T08:52:20.043Z,4072
2023-03-18T08:53:20.425Z,4080
2023-03-18T08:54:21.083Z,4176
2023-03-18T08:55:22.489Z,3992
2023-03-18T08:56:22.779Z,4008
2023-03-18T08:57:23.311Z,4240
2023-03-18T08:58:23.703Z,4496
2023-03-18T08:59:24.265Z,4684
2023-03-18T09:00:24.911Z,4496
2023-03-18T09:01:25.866Z,4512
2023-03-18T09:02:26.225Z,4284
2023-03-18T09:03:26.516Z,4648
2023-03-18T09:04:27.193Z,4960
2023-03-18T09:05:28.733Z,4916
2023-03-18T09:06:28.928Z,5256
2023-03-18T09:07:30.741Z,5736
2023-03-18T09:08:30.733Z,5612
2023-03-18T09:09:49.630Z,5480
2023-03-18T09:10:32.650Z,5732
2023-03-18T09:11:33.217Z,5828
2023-03-18T09:12:33.178Z,5176
2023-03-18T09:13:34.739Z,4868
2023-03-18T09:14:34.970Z,4764
2023-03-18T09:15:35.301Z,4708
2023-03-18T09:16:35.885Z,5544
2023-03-18T09:18:17.983Z,4864
2023-03-18T09:18:36.946Z,4876
2023-03-18T09:19:37.408Z,4660
2023-03-18T09:20:39.083Z,4592
2023-03-18T09:21:39.308Z,4460
2023-03-18T09:22:39.979Z,4588
2023-03-18T09:23:41.483Z,5384
2023-03-18T09:24:41.460Z,6444
2023-03-18T09:25:42.712Z,6812
2023-03-18T09:26:42.784Z,5768
2023-03-18T09:27:42.773Z,6824
2023-03-18T09:28:42.728Z,7316
2023-03-18T09:29:43.768Z,7156
2023-03-18T09:30:44.273Z,7356
2023-03-18T09:31:45.336Z,6760
2023-03-18T09:32:46.110Z,6644
2023-03-18T09:33:46.423Z,7000
2023-03-18T09:34:46.369Z,8212
2023-03-18T09:35:47.436Z,8052
2023-03-18T09:36:47.096Z,7260
2023-03-18T09:37:47.696Z,7080
2023-03-18T09:38:48.217Z,5980
2023-03-18T09:39:48.632Z,5276
2023-03-18T09:40:49.981Z,5168
2023-03-18T09:41:50.273Z,5400
2023-03-18T09:42:50.526Z,5392
2023-03-18T09:43:51.052Z,6572
2023-03-18T09:44:51.562Z,7484
2023-03-18T09:45:52.359Z,7944
2023-03-18T09:46:53.230Z,8848
2023-03-18T09:47:53.670Z,6900
2023-03-18T09:48:53.915Z,7484
2023-03-18T09:49:54.255Z,6572
2023-03-18T09:50:54.186Z,7164
2023-03-18T09:51:55.428Z,6628
2023-03-18T09:52:55.685Z,7292
2023-03-18T09:53:56.212Z,9572
2023-03-18T09:54:56.904Z,8204
2023-03-18T09:55:57.587Z,8672
2023-03-18T09:56:59.186Z,7228
2023-03-18T09:57:59.430Z,7320
2023-03-18T09:58:59.697Z,7592
2023-03-18T10:00:00.086Z,6700
2023-03-18T10:01:01.114Z,6704
2023-03-18T10:02:01.510Z,7312
2023-03-18T10:03:03.855Z,6580
2023-03-18T10:04:03.149Z,10292
2023-03-18T10:05:03.023Z,9816
2023-03-18T10:06:04.303Z,10292
2023-03-18T10:07:03.964Z,10052
2023-03-18T10:08:04.921Z,9456
2023-03-18T10:09:05.857Z,9436
2023-03-18T10:10:06.624Z,8876
2023-03-18T10:11:06.980Z,9920
2023-03-18T10:12:08.273Z,9092
2023-03-18T10:13:08.516Z,9268
2023-03-18T10:14:09.040Z,11604
2023-03-18T10:15:09.695Z,9664
2023-03-18T10:16:11.151Z,11264
2023-03-18T10:17:11.198Z,11928
2023-03-18T10:18:11.529Z,12600
2023-03-18T10:19:12.806Z,11592
2023-03-18T10:20:14.335Z,12368
2023-03-18T10:21:13.477Z,12848
2023-03-18T10:22:13.726Z,11080
2023-03-18T10:23:14.392Z,9736
2023-03-18T10:24:15.916Z,10020
2023-03-18T10:25:16.440Z,12416
2023-03-18T10:26:16.408Z,12856
2023-03-18T10:27:17.794Z,13992
2023-03-18T10:28:17.774Z,12572
2023-03-18T10:29:18.298Z,14624
2023-03-18T10:30:19.729Z,14020
2023-03-18T10:31:19.186Z,13584
2023-03-18T10:32:19.542Z,13344
2023-03-18T10:33:20.910Z,13688
2023-03-18T10:34:21.252Z,12436
2023-03-18T10:35:21.486Z,13560
2023-03-18T10:36:21.602Z,14012
2023-03-18T10:37:22.561Z,14160
2023-03-18T10:38:23.495Z,13016
2023-03-18T10:39:23.750Z,13400
2023-03-18T10:40:23.645Z,12700
2023-03-18T10:41:26.481Z,13508
2023-03-18T10:42:25.680Z,14008
2023-03-18T10:43:25.965Z,13568
2023-03-18T10:44:25.918Z,13232
2023-03-18T10:45:27.174Z,13352
2023-03-18T10:46:28.515Z,13400
2023-03-18T10:47:28.671Z,13588
2023-03-18T10:48:29.092Z,13696
2023-03-18T10:49:29.470Z,13696
2023-03-18T10:50:31.070Z,13524
2023-03-18T10:51:31.040Z,13624
2023-03-18T10:52:31.283Z,13680
2023-03-18T10:53:31.209Z,13732
2023-03-18T10:54:32.171Z,13716
2023-03-18T10:55:32.391Z,13660
2023-03-18T10:56:32.616Z,13536
2023-03-18T10:57:33.946Z,13232
2023-03-18T10:58:34.223Z,12924
2023-03-18T10:59:34.238Z,12436
2023-03-18T11:00:35.949Z,11840
2023-03-18T11:01:36.318Z,11628
2023-03-18T11:02:36.798Z,12220
2023-03-18T11:03:36.830Z,12696
2023-03-18T11:04:37.085Z,11616
2023-03-18T11:05:39.299Z,10996
2023-03-18T11:06:38.540Z,10956
2023-03-18T11:07:39.211Z,11728
2023-03-18T11:08:39.809Z,12068
2023-03-18T11:09:40.072Z,11416
2023-03-18T11:10:41.926Z,11648
2023-03-18T11:11:41.913Z,11240
2023-03-18T11:12:42.872Z,10804
2023-03-18T11:13:42.841Z,10324
2023-03-18T11:14:43.532Z,10952
2023-03-18T11:15:44.507Z,11228
2023-03-18T11:16:44.684Z,10608
2023-03-18T11:17:46.242Z,10956
2023-03-18T11:18:46.454Z,11344
2023-03-18T11:19:46.990Z,11080
2023-03-18T11:20:47.774Z,11244
2023-03-18T11:21:48.014Z,10984
2023-03-18T11:22:47.974Z,10500
2023-03-18T11:23:49.549Z,9976
2023-03-18T11:24:49.827Z,10084
2023-03-18T11:25:50.759Z,8596
2023-03-18T11:26:51.084Z,8960
2023-03-18T11:27:51.961Z,10316
2023-03-18T11:28:51.357Z,9720
2023-03-18T11:29:52.721Z,10384
2023-03-18T11:30:53.684Z,10720
2023-03-18T11:31:53.759Z,8800
2023-03-18T11:32:54.378Z,7588
2023-03-18T11:33:54.845Z,8596
2023-03-18T11:34:55.782Z,9868
2023-03-18T11:35:56.579Z,9568
2023-03-18T11:36:56.592Z,8132
2023-03-18T11:37:56.552Z,7300
2023-03-18T11:38:58.095Z,9084
2023-03-18T11:40:04.737Z,9508
2023-03-18T11:40:58.517Z,9180
2023-03-18T11:41:59.470Z,9084
2023-03-18T11:43:01.120Z,8808
2023-03-18T11:44:01.601Z,8528
2023-03-18T11:45:03.151Z,8488
2023-03-18T11:46:03.398Z,7972
2023-03-18T11:47:03.324Z,7472
2023-03-18T11:48:03.644Z,6896
2023-03-18T11:49:04.604Z,5828
2023-03-18T11:50:05.583Z,5220
2023-03-18T11:53:08.022Z,6648
2023-03-18T15:43:46.712Z,896
2023-03-18T15:44:43.706Z,864
2023-03-18T15:45:43.244Z,848
2023-03-18T15:46:43.346Z,844
2023-03-18T15:47:43.307Z,840
2023-03-18T15:48:43.532Z,840
2023-03-18T15:49:43.737Z,832
2023-03-18T15:50:44.389Z,816
2023-03-18T15:51:44.360Z,796
2023-03-18T15:52:45.412Z,768
2023-03-18T15:53:45.609Z,740
2023-03-18T15:54:46.607Z,712
2023-03-18T15:55:46.704Z,688
2023-03-18T15:56:47.635Z,680
2023-03-18T15:57:47.982Z,684
2023-03-18T15:58:47.943Z,676
2023-03-18T15:59:49.544Z,696
2023-03-18T16:00:49.347Z,684
2023-03-18T16:01:50.632Z,728
2023-03-18T16:02:51.522Z,748
2023-03-18T16:03:51.338Z,704
2023-03-18T16:04:52.588Z,672
2023-03-18T16:05:52.598Z,680
2023-03-18T16:06:53.106Z,704
2023-03-18T16:07:53.093Z,732
2023-03-18T16:08:54.024Z,756
2023-03-18T16:09:55.030Z,772
2023-03-18T16:10:55.943Z,776
2023-03-18T16:11:57.226Z,788
2023-03-18T16:12:57.448Z,776
2023-03-18T16:13:57.646Z,772
2023-03-18T16:14:58.314Z,756
2023-03-18T16:15:58.557Z,752
2023-03-18T16:16:59.339Z,760
2023-03-18T16:18:00.573Z,736
2023-03-18T16:19:01.074Z,736
2023-03-18T16:20:01.331Z,744
2023-03-18T16:21:01.748Z,776
2023-03-18T16:22:02.689Z,736
2023-03-18T16:23:02.664Z,728
2023-03-18T16:24:03.186Z,840
2023-03-18T16:25:03.441Z,848
2023-03-18T16:26:04.022Z,828
2023-03-18T16:27:04.726Z,808
2023-03-18T16:28:05.670Z,788
2023-03-18T16:29:06.599Z,768
2023-03-18T16:30:07.536Z,748
2023-03-18T16:31:06.890Z,720
2023-03-18T16:32:08.519Z,704
2023-03-18T16:33:09.109Z,680
2023-03-18T16:34:09.363Z,668
2023-03-18T16:35:09.609Z,644
2023-03-18T16:36:10.408Z,620
2023-03-18T16:37:11.978Z,596
2023-03-18T16:38:11.969Z,576
2023-03-18T16:39:13.189Z,556
2023-03-18T16:40:14.120Z,536
2023-03-18T16:41:15.070Z,516
2023-03-18T16:42:15.021Z,492
2023-03-18T16:43:15.399Z,456
2023-03-18T16:44:16.478Z,432
2023-03-18T16:45:17.813Z,408
2023-03-18T16:46:18.741Z,388
2023-03-18T16:47:18.501Z,364
2023-03-18T16:48:19.713Z,336
2023-03-18T16:49:19.091Z,320
2023-03-18T16:50:19.452Z,304
2023-03-18T16:51:20.678Z,292
2023-03-18T16:52:20.899Z,272
2023-03-18T16:53:21.109Z,256
2023-03-18T16:54:21.868Z,240
2023-03-18T16:55:22.856Z,228
2023-03-18T16:56:23.063Z,212
2023-03-18T16:57:23.990Z,204
2023-03-18T16:58:24.206Z,192
2023-03-18T16:59:25.152Z,184
2023-03-18T17:00:26.453Z,168
2023-03-18T17:01:27.544Z,160
2023-03-18T17:02:27.628Z,148
2023-03-18T17:03:28.032Z,140
2023-03-18T17:04:29.789Z,128
2023-03-18T17:05:30.262Z,124
2023-03-18T17:06:30.516Z,112
2023-03-18T17:07:30.443Z,108
2023-03-18T17:08:31.149Z,100
2023-03-18T17:09:31.376Z,92
2023-03-18T17:10:32.301Z,88
2023-03-18T17:11:33.215Z,84
2023-03-18T17:12:33.726Z,76
2023-03-18T17:13:33.658Z,72
2023-03-18T17:14:34.758Z,68
2023-03-18T17:15:35.563Z,60
2023-03-18T17:16:36.296Z,56
2023-03-18T17:17:36.878Z,52
2023-03-18T17:18:37.102Z,48
2023-03-18T17:19:37.058Z,44
2023-03-18T17:20:37.992Z,40
2023-03-18T17:21:38.221Z,32
2023-03-18T17:22:38.442Z,32
2023-03-18T17:23:38.390Z,28
2023-03-18T17:24:38.833Z,28
2023-03-18T17:25:40.839Z,24
2023-03-18T17:26:41.083Z,20
2023-03-18T17:27:41.604Z,20
2023-03-18T17:28:42.566Z,20
2023-03-18T17:29:42.791Z,12
2023-03-18T17:30:44.406Z,12
2023-03-18T17:31:44.721Z,12
2023-03-18T17:32:45.077Z,8
2023-03-18T17:33:45.343Z,8
2023-03-18T17:34:45.681Z,8
2023-03-18T17:35:47.665Z,4
2023-03-18T17:36:47.318Z,8
2023-03-18T17:37:48.272Z,4
2023-03-18T17:38:49.760Z,0
2023-03-18T17:39:50.002Z,4
2023-03-18T17:40:50.603Z,0
2023-03-18T17:41:50.817Z,0
2023-03-18T17:42:51.346Z,4
2023-03-18T17:43:52.276Z,4
2023-03-18T17:44:52.109Z,0
2023-03-18T17:45:53.752Z,0
2023-03-18T17:46:53.878Z,0
2023-03-18T17:47:55.091Z,0
2023-03-18T17:48:55.316Z,0
2023-03-18T17:49:55.518Z,0
2023-03-18T17:50:55.762Z,0
2023-03-18T17:51:56.259Z,0
2023-03-18T17:52:56.462Z,0
2023-03-18T17:53:56.883Z,0
2023-03-18T17:54:56.977Z,0
2023-03-18T17:55:57.981Z,0
2023-03-18T17:56:59.274Z,0